createdAt,value
2018-05-13T00:02:17.395Z,54.40
2018-05-13T00:07:20.447Z,53.67
2018-05-13T00:09:47.964Z,46.90
2018-05-13T00:12:15.589Z,52.13
2018-05-13T00:14:43.142Z,53.57
2018-05-13T00:17:10.670Z,51.40
2018-05-13T00:19:38.204Z,56.90
2018-05-13T00:22:06.615Z,59.33
2018-05-13T00:24:34.201Z,44.33
2018-05-13T00:27:01.846Z,50.13
2018-05-13T00:29:29.412Z,54.57
2018-05-13T00:31:56.933Z,47.97
2018-05-13T00:34:25.267Z,47.60
2018-05-13T00:36:53.005Z,55.47
2018-05-13T00:39:20.526Z,45.17
2018-05-13T00:41:48.835Z,53.00
2018-05-13T00:44:16.399Z,50.03
2018-05-13T00:46:43.907Z,49.63
2018-05-13T00:49:11.530Z,53.70
2018-05-13T00:51:39.093Z,52.53
2018-05-13T00:54:18.514Z,47.40
2018-05-13T00:56:46.161Z,52.10
2018-05-13T00:59:13.681Z,54.97
2018-05-13T01:01:41.297Z,53.53
2018-05-13T01:04:08.855Z,48.90
2018-05-13T01:06:36.381Z,52.37
2018-05-13T01:09:03.915Z,55.30
2018-05-13T01:11:31.475Z,58.33
2018-05-13T01:13:59.986Z,51.17
2018-05-13T01:16:27.506Z,48.67
2018-05-13T01:18:55.139Z,51.67
2018-05-13T01:21:22.674Z,53.77
2018-05-13T01:23:50.198Z,51.27
2018-05-13T01:26:18.525Z,53.10
2018-05-13T01:28:46.073Z,55.63
2018-05-13T01:31:13.635Z,54.20
2018-05-13T01:33:41.185Z,52.20
2018-05-13T01:36:08.712Z,52.80
2018-05-13T01:38:37.016Z,53.80
2018-05-13T01:41:04.667Z,50.40
2018-05-13T01:43:32.267Z,56.73
2018-05-13T01:45:59.806Z,52.43
2018-05-13T01:48:27.520Z,57.03
2018-05-13T01:50:55.841Z,57.37
2018-05-13T01:53:23.420Z,55.53
2018-05-13T01:55:50.957Z,53.17
2018-05-13T01:58:18.502Z,72.00
2018-05-13T02:00:46.085Z,71.80
2018-05-13T02:03:13.660Z,81.67
2018-05-13T02:05:41.195Z,78.53
2018-05-13T02:08:08.764Z,71.17
2018-05-13T02:10:36.330Z,62.37
2018-05-13T02:13:03.886Z,58.53
2018-05-13T02:15:31.430Z,51.90
2018-05-13T02:17:59.086Z,51.83
2018-05-13T02:20:26.648Z,53.03
2018-05-13T02:22:54.216Z,60.17
2018-05-13T02:25:21.858Z,60.13
2018-05-13T02:27:49.403Z,52.67
2018-05-13T02:30:16.925Z,52.60
2018-05-13T02:32:44.479Z,50.50
2018-05-13T02:35:12.014Z,55.17
2018-05-13T02:37:39.546Z,50.77
2018-05-13T02:40:07.130Z,51.33
2018-05-13T02:42:34.658Z,56.40
2018-05-13T02:45:02.234Z,52.00
2018-05-13T02:47:29.803Z,54.03
2018-05-13T02:49:58.321Z,54.93
2018-05-13T02:52:25.855Z,52.53
2018-05-13T02:54:53.402Z,55.23
2018-05-13T02:57:20.925Z,50.33
2018-05-13T02:59:48.515Z,56.60
2018-05-13T03:02:16.195Z,51.67
2018-05-13T03:04:43.735Z,55.17
2018-05-13T03:07:11.295Z,57.77
2018-05-13T03:09:38.854Z,56.40
2018-05-13T03:12:06.385Z,57.53
2018-05-13T03:14:33.922Z,63.50
2018-05-13T03:17:02.243Z,61.57
2018-05-13T03:19:29.780Z,56.17
2018-05-13T03:21:57.310Z,62.40
2018-05-13T03:24:25.659Z,60.00
2018-05-13T03:26:54.018Z,63.20
2018-05-13T03:29:21.540Z,60.90
2018-05-13T03:31:49.879Z,58.97
2018-05-13T03:34:17.403Z,58.30
2018-05-13T03:36:44.931Z,57.83
2018-05-13T03:39:13.238Z,70.10
2018-05-13T03:41:40.788Z,62.37
2018-05-13T03:44:08.319Z,52.43
2018-05-13T03:46:36.654Z,56.00
2018-05-13T03:49:04.169Z,57.77
2018-05-13T03:51:31.699Z,62.43
2018-05-13T03:54:00.111Z,61.40
2018-05-13T03:56:27.625Z,64.00
2018-05-13T03:58:55.247Z,71.27
2018-05-13T04:01:22.791Z,62.67
2018-05-13T04:03:50.367Z,52.97
2018-05-13T04:06:17.881Z,63.13
2018-05-13T04:08:58.322Z,56.80
2018-05-13T04:11:40.062Z,61.83
2018-05-13T04:14:20.283Z,57.57
2018-05-13T04:16:48.574Z,65.60
2018-05-13T04:19:16.152Z,59.97
2018-05-13T04:21:43.715Z,63.90
2018-05-13T04:24:11.286Z,60.63
2018-05-13T04:26:38.805Z,56.70
2018-05-13T04:29:07.135Z,58.20
2018-05-13T04:31:34.686Z,56.67
2018-05-13T04:34:02.226Z,64.83
2018-05-13T04:36:30.297Z,55.30
2018-05-13T04:38:57.811Z,58.87
2018-05-13T04:41:26.147Z,59.13
2018-05-13T04:43:53.793Z,62.50
2018-05-13T04:46:21.348Z,56.63
2018-05-13T04:48:48.883Z,57.03
2018-05-13T04:51:16.477Z,61.57
2018-05-13T04:53:44.036Z,59.97
2018-05-13T04:56:11.557Z,65.67
2018-05-13T04:58:39.118Z,50.40
2018-05-13T05:01:07.395Z,50.17
2018-05-13T05:03:34.974Z,55.83
2018-05-13T05:06:02.529Z,56.80
2018-05-13T05:08:30.059Z,58.77
2018-05-13T05:10:58.377Z,53.03
2018-05-13T05:13:25.917Z,52.73
2018-05-13T05:15:53.497Z,51.13
2018-05-13T05:18:21.029Z,58.30
2018-05-13T05:20:48.604Z,49.80
2018-05-13T05:23:16.188Z,55.77
2018-05-13T05:25:43.719Z,50.00
2018-05-13T05:28:11.283Z,49.93
2018-05-13T05:30:38.826Z,50.60
2018-05-13T05:33:06.366Z,51.90
2018-05-13T05:35:34.681Z,52.30
2018-05-13T05:38:02.210Z,53.93
2018-05-13T05:40:29.746Z,50.10
2018-05-13T05:42:58.065Z,50.97
2018-05-13T05:45:25.627Z,54.70
2018-05-13T05:47:53.161Z,50.13
2018-05-13T05:50:20.722Z,53.40
2018-05-13T05:52:48.263Z,52.63
2018-05-13T05:55:16.558Z,51.10
2018-05-13T05:57:44.096Z,55.67
2018-05-13T06:00:12.428Z,57.30
2018-05-13T06:02:39.984Z,54.23
2018-05-13T06:05:07.946Z,56.30
2018-05-13T06:07:35.495Z,54.80
2018-05-13T06:10:03.059Z,65.93
2018-05-13T06:12:30.593Z,57.67
2018-05-13T06:14:58.119Z,62.83
2018-05-13T06:17:25.642Z,59.00
2018-05-13T06:19:53.195Z,61.00
2018-05-13T06:22:20.713Z,67.33
2018-05-13T06:24:49.003Z,63.77
2018-05-13T06:27:17.029Z,65.30
2018-05-13T06:29:44.551Z,64.17
2018-05-13T06:32:12.119Z,68.27
2018-05-13T06:34:39.679Z,62.27
2018-05-13T06:37:07.202Z,65.87
2018-05-13T06:39:35.610Z,65.90
2018-05-13T06:42:03.080Z,68.63
2018-05-13T06:44:30.619Z,68.27
2018-05-13T06:46:58.183Z,61.87
2018-05-13T06:49:25.766Z,70.63
2018-05-13T06:51:53.403Z,56.57
2018-05-13T06:54:20.944Z,61.07
2018-05-13T06:56:48.939Z,61.37
2018-05-13T06:59:16.481Z,59.50
2018-05-13T07:01:44.567Z,63.67
2018-05-13T07:04:12.111Z,61.00
2018-05-13T07:06:39.692Z,61.90
2018-05-13T07:09:07.415Z,62.60
2018-05-13T07:11:35.011Z,55.93
2018-05-13T07:14:02.559Z,60.43
2018-05-13T07:16:30.204Z,58.43
2018-05-13T07:18:57.650Z,61.03
2018-05-13T07:21:25.180Z,61.77
2018-05-13T07:23:52.743Z,57.47
2018-05-13T07:26:21.029Z,62.63
2018-05-13T07:28:49.307Z,54.60
2018-05-13T07:31:17.606Z,51.80
2018-05-13T07:33:45.170Z,57.00
2018-05-13T07:36:12.730Z,48.53
2018-05-13T07:38:40.266Z,46.30
2018-05-13T07:41:07.842Z,53.37
2018-05-13T07:43:35.403Z,54.60
2018-05-13T07:46:02.974Z,52.80
2018-05-13T07:48:30.685Z,48.40
2018-05-13T07:50:58.332Z,48.63
2018-05-13T07:53:25.858Z,52.43
2018-05-13T07:55:53.443Z,50.70
2018-05-13T07:58:21.078Z,53.80
2018-05-13T08:00:48.731Z,54.07
2018-05-13T08:03:16.269Z,57.30
2018-05-13T08:05:43.854Z,51.83
2018-05-13T08:08:11.404Z,48.27
2018-05-13T08:10:38.973Z,47.67
2018-05-13T08:13:06.663Z,49.70
2018-05-13T08:15:34.299Z,46.50
2018-05-13T08:18:01.849Z,51.93
2018-05-13T08:20:30.326Z,49.17
2018-05-13T08:22:57.911Z,46.77
2018-05-13T08:25:25.559Z,48.40
2018-05-13T08:27:53.098Z,50.83
2018-05-13T08:30:20.636Z,44.70
2018-05-13T08:32:48.194Z,45.90
2018-05-13T08:35:16.525Z,48.77
2018-05-13T08:37:44.148Z,46.73
2018-05-13T08:40:11.665Z,51.40
2018-05-13T08:42:39.189Z,41.67
2018-05-13T08:45:06.832Z,48.37
2018-05-13T08:47:34.490Z,49.20
2018-05-13T08:50:02.060Z,46.33
2018-05-13T08:52:29.602Z,47.97
2018-05-13T08:54:57.117Z,44.93
2018-05-13T08:57:24.750Z,44.20
2018-05-13T08:59:52.269Z,49.00
2018-05-13T09:02:19.804Z,43.60
2018-05-13T09:04:48.145Z,44.20
2018-05-13T09:07:15.670Z,45.50
2018-05-13T09:09:43.228Z,43.50
2018-05-13T09:12:10.767Z,44.03
2018-05-13T09:14:39.052Z,41.13
2018-05-13T09:17:06.634Z,39.53
2018-05-13T09:19:34.168Z,47.03
2018-05-13T09:22:01.728Z,45.40
2018-05-13T09:24:29.346Z,46.60
2018-05-13T09:26:56.870Z,43.73
2018-05-13T09:29:25.173Z,42.93
2018-05-13T09:31:52.740Z,43.90
2018-05-13T09:34:20.384Z,43.57
2018-05-13T09:36:47.931Z,40.83
2018-05-13T09:39:15.463Z,43.13
2018-05-13T09:41:43.031Z,43.70
2018-05-13T09:44:10.577Z,41.07
2018-05-13T09:46:38.122Z,32.77
2018-05-13T09:49:06.401Z,35.63
2018-05-13T09:51:34.816Z,37.93
2018-05-13T09:54:02.338Z,24.50
2018-05-13T09:56:30.634Z,23.23
2018-05-13T09:58:58.222Z,16.67
2018-05-13T10:01:25.851Z,19.07
2018-05-13T10:03:53.425Z,14.00
2018-05-13T10:06:20.987Z,17.70
2018-05-13T10:08:48.856Z,13.60
2018-05-13T10:11:16.394Z,18.07
2018-05-13T10:13:43.944Z,17.73
2018-05-13T10:16:11.535Z,15.10
2018-05-13T10:18:39.053Z,17.83
2018-05-13T10:21:07.466Z,18.23
2018-05-13T10:23:35.007Z,17.60
2018-05-13T10:26:02.548Z,23.10
2018-05-13T10:28:30.101Z,17.50
2018-05-13T10:30:58.410Z,17.90
2018-05-13T10:33:25.974Z,18.17
2018-05-13T10:35:53.525Z,25.00
2018-05-13T10:38:21.088Z,18.87
2018-05-13T10:40:48.658Z,18.67
2018-05-13T10:43:16.305Z,18.50
2018-05-13T10:45:43.909Z,24.33
2018-05-13T10:48:11.451Z,19.60
2018-05-13T10:50:38.982Z,18.77
2018-05-13T10:53:06.615Z,22.47
2018-05-13T10:55:34.943Z,20.67
2018-05-13T10:58:02.498Z,25.80
2018-05-13T11:00:30.074Z,24.63
2018-05-13T11:02:57.620Z,21.30
2018-05-13T11:05:25.260Z,25.57
2018-05-13T11:07:52.794Z,26.90
2018-05-13T11:10:20.347Z,24.10
2018-05-13T11:12:48.666Z,25.03
2018-05-13T11:15:16.202Z,35.20
2018-05-13T11:17:43.741Z,28.27
2018-05-13T11:20:12.058Z,31.60
2018-05-13T11:22:39.609Z,25.90
2018-05-13T11:25:07.170Z,26.53
2018-05-13T11:27:34.711Z,29.17
2018-05-13T11:30:02.240Z,33.40
2018-05-13T11:32:30.663Z,31.60
2018-05-13T11:34:58.191Z,28.07
2018-05-13T11:37:25.715Z,27.97
2018-05-13T11:39:53.375Z,28.57
2018-05-13T11:42:20.910Z,33.50
2018-05-13T11:44:48.651Z,28.30
2018-05-13T11:47:16.142Z,29.63
2018-05-13T11:49:43.804Z,30.07
2018-05-13T11:52:11.447Z,32.30
2018-05-13T11:54:38.965Z,30.83
2018-05-13T11:57:06.567Z,32.13
2018-05-13T11:59:34.110Z,29.00
2018-05-13T12:02:01.634Z,25.90
2018-05-13T12:04:29.946Z,29.30
2018-05-13T12:06:57.469Z,27.63
2018-05-13T12:09:25.776Z,27.30
2018-05-13T12:11:53.437Z,26.30
2018-05-13T12:14:20.981Z,31.57
2018-05-13T12:16:48.566Z,28.40
2018-05-13T12:19:17.038Z,28.50
2018-05-13T12:21:44.670Z,33.13
2018-05-13T12:24:12.974Z,33.30
2018-05-13T12:26:42.177Z,28.90
2018-05-13T12:29:09.748Z,28.90
2018-05-13T12:31:37.290Z,26.23
2018-05-13T12:34:04.865Z,27.90
2018-05-13T12:36:32.406Z,28.47
2018-05-13T12:38:59.949Z,27.87
2018-05-13T12:41:27.486Z,27.87
2018-05-13T12:43:55.774Z,30.80
2018-05-13T12:46:24.105Z,31.33
2018-05-13T12:48:52.449Z,31.60
2018-05-13T12:51:20.010Z,37.37
2018-05-13T12:53:47.672Z,31.33
2018-05-13T12:56:15.716Z,32.40
2018-05-13T12:58:43.199Z,31.83
2018-05-13T13:01:10.760Z,30.07
2018-05-13T13:03:38.328Z,34.80
2018-05-13T13:06:05.856Z,32.07
2018-05-13T13:08:33.441Z,31.73
2018-05-13T13:11:00.992Z,34.10
2018-05-13T13:13:28.519Z,28.03
2018-05-13T13:15:56.929Z,33.00
2018-05-13T13:18:24.457Z,36.80
2018-05-13T13:20:52.735Z,33.40
2018-05-13T13:23:21.073Z,33.73
2018-05-13T13:25:48.685Z,38.43
2018-05-13T13:28:16.143Z,44.83
2018-05-13T13:30:43.736Z,41.17
2018-05-13T13:33:11.288Z,39.40
2018-05-13T13:35:38.824Z,56.30
2018-05-13T13:38:06.521Z,56.70
2018-05-13T13:40:34.064Z,62.90
2018-05-13T13:43:01.712Z,66.17
2018-05-13T13:45:29.272Z,66.77
2018-05-13T13:47:56.842Z,72.33
2018-05-13T13:50:24.390Z,69.43
2018-05-13T13:52:52.053Z,69.50
2018-05-13T13:55:19.584Z,69.90
2018-05-13T13:57:47.927Z,75.30
2018-05-13T14:00:15.474Z,73.57
2018-05-13T14:02:42.998Z,70.53
2018-05-13T14:05:10.531Z,78.77
2018-05-13T14:07:38.857Z,81.10
2018-05-13T14:10:06.396Z,90.60
2018-05-13T14:12:33.938Z,87.53
2018-05-13T14:15:01.492Z,86.93
2018-05-13T14:17:29.100Z,94.80
2018-05-13T14:19:56.648Z,81.10
2018-05-13T14:22:24.209Z,86.50
2018-05-13T14:24:51.759Z,89.07
2018-05-13T14:27:19.268Z,90.90
2018-05-13T14:29:47.588Z,90.27
2018-05-13T14:32:15.122Z,85.80
2018-05-13T14:34:42.656Z,86.03
2018-05-13T14:37:10.257Z,103.27
2018-05-13T14:39:37.819Z,91.33
2018-05-13T14:42:05.345Z,88.00
2018-05-13T14:44:33.673Z,89.70
2018-05-13T14:47:01.351Z,81.80
2018-05-13T14:49:28.895Z,85.87
2018-05-13T14:51:56.535Z,95.97
2018-05-13T14:54:24.058Z,86.50
2018-05-13T14:56:52.344Z,87.10
2018-05-13T14:59:20.849Z,83.27
2018-05-13T15:01:48.387Z,91.10
2018-05-13T15:04:15.936Z,95.43
2018-05-13T15:06:44.357Z,101.40
2018-05-13T15:09:12.004Z,92.70
2018-05-13T15:11:39.541Z,98.77
2018-05-13T15:14:07.118Z,94.80
2018-05-13T15:16:34.695Z,98.83
2018-05-13T15:19:02.231Z,93.30
2018-05-13T15:21:29.813Z,93.43
2018-05-13T15:23:57.357Z,102.13
2018-05-13T15:26:24.878Z,90.33
2018-05-13T15:28:53.337Z,101.13
2018-05-13T15:31:20.897Z,94.90
2018-05-13T15:33:48.617Z,112.63
2018-05-13T15:36:16.192Z,110.00
2018-05-13T15:38:43.745Z,115.73
2018-05-13T15:41:11.309Z,124.53
2018-05-13T15:43:38.970Z,119.57
2018-05-13T15:46:06.489Z,132.77
2018-05-13T15:48:34.790Z,133.67
2018-05-13T15:51:02.589Z,137.57
2018-05-13T15:53:30.246Z,145.13
2018-05-13T15:55:57.793Z,151.50
2018-05-13T15:58:25.345Z,140.40
2018-05-13T16:00:52.877Z,165.17
2018-05-13T16:03:20.466Z,171.10
2018-05-13T16:05:48.040Z,162.83
2018-05-13T16:08:15.581Z,179.00
2018-05-13T16:10:43.111Z,159.90
2018-05-13T16:13:10.674Z,168.43
2018-05-13T16:15:38.262Z,166.70
2018-05-13T16:18:05.819Z,179.13
2018-05-13T16:20:33.465Z,200.83
2018-05-13T16:23:01.019Z,215.17
2018-05-13T16:25:28.601Z,249.37
2018-05-13T16:27:56.296Z,243.10
2018-05-13T16:30:23.980Z,228.97
2018-05-13T16:32:52.257Z,221.60
2018-05-13T16:35:20.600Z,216.43
2018-05-13T16:37:48.216Z,244.33
2018-05-13T16:40:15.760Z,211.83
2018-05-13T16:42:43.314Z,212.23
2018-05-13T16:45:10.913Z,207.83
2018-05-13T16:47:38.448Z,208.50
2018-05-13T16:50:06.016Z,205.47
2018-05-13T16:52:33.556Z,232.23
2018-05-13T16:55:01.134Z,283.20
2018-05-13T16:57:28.708Z,253.43
2018-05-13T16:59:56.298Z,368.43
2018-05-13T17:02:23.851Z,292.97
2018-05-13T17:04:51.468Z,308.30
2018-05-13T17:07:19.025Z,306.13
2018-05-13T17:09:46.571Z,330.70
2018-05-13T17:12:14.163Z,304.93
2018-05-13T17:14:42.064Z,340.10
2018-05-13T17:17:10.412Z,319.83
2018-05-13T17:19:38.075Z,332.70
2018-05-13T17:22:05.630Z,303.83
2018-05-13T17:24:33.172Z,312.27
2018-05-13T17:27:00.732Z,303.20
2018-05-13T17:29:28.285Z,270.77
2018-05-13T17:31:55.826Z,256.57
2018-05-13T17:34:23.429Z,291.77
2018-05-13T17:36:51.005Z,347.73
2018-05-13T17:39:18.728Z,318.03
2018-05-13T17:41:47.015Z,266.03
2018-05-13T17:44:14.560Z,267.07
2018-05-13T17:46:42.095Z,242.73
2018-05-13T17:49:09.703Z,232.70
2018-05-13T17:51:37.251Z,250.87
2018-05-13T17:54:04.819Z,261.30
2018-05-13T17:56:32.460Z,249.63
2018-05-13T17:59:00.033Z,252.03
2018-05-13T18:01:27.577Z,241.00
2018-05-13T18:03:55.130Z,224.87
2018-05-13T18:06:22.687Z,215.77
2018-05-13T18:08:50.221Z,226.53
2018-05-13T18:11:18.542Z,232.23
2018-05-13T18:13:46.342Z,224.50
2018-05-13T18:16:15.085Z,227.63
2018-05-13T18:18:42.737Z,221.50
2018-05-13T18:21:10.271Z,227.90
2018-05-13T18:23:37.803Z,217.50
2018-05-13T18:26:05.363Z,228.70
2018-05-13T18:28:32.905Z,194.57
2018-05-13T18:31:00.478Z,228.60
2018-05-13T18:33:28.858Z,273.80
2018-05-13T18:35:56.401Z,268.57
2018-05-13T18:38:23.964Z,251.97
2018-05-13T18:40:51.543Z,291.50
2018-05-13T18:43:19.881Z,272.33
2018-05-13T18:45:47.411Z,264.67
2018-05-13T18:48:15.289Z,223.10
2018-05-13T18:50:42.852Z,222.87
2018-05-13T18:53:10.384Z,250.90
2018-05-13T18:55:37.970Z,223.00
2018-05-13T18:58:05.532Z,286.77
2018-05-13T19:00:33.094Z,267.40
2018-05-13T19:03:00.677Z,294.10
2018-05-13T19:05:28.231Z,319.97
2018-05-13T19:07:55.876Z,327.00
2018-05-13T19:10:23.513Z,319.40
2018-05-13T19:12:51.045Z,322.87
2018-05-13T19:15:19.339Z,305.17
2018-05-13T19:17:46.924Z,320.87
2018-05-13T19:20:14.479Z,313.87
2018-05-13T19:22:42.062Z,341.30
2018-05-13T19:25:09.626Z,345.53
2018-05-13T19:27:37.181Z,334.90
2018-05-13T19:30:04.718Z,279.67
2018-05-13T19:32:32.332Z,360.27
2018-05-13T19:35:00.656Z,345.60
2018-05-13T19:37:28.194Z,345.90
2018-05-13T19:39:57.070Z,253.53
2018-05-13T19:42:24.760Z,286.67
2018-05-13T19:44:52.327Z,353.10
2018-05-13T19:47:19.903Z,319.33
2018-05-13T19:49:47.549Z,305.60
2018-05-13T19:52:15.205Z,307.23
2018-05-13T19:54:42.772Z,306.83
2018-05-13T19:57:10.321Z,297.97
2018-05-13T19:59:37.868Z,267.87
2018-05-13T20:02:05.438Z,253.07
2018-05-13T20:04:33.028Z,275.17
2018-05-13T20:07:00.689Z,288.33
2018-05-13T20:09:28.300Z,248.03
2018-05-13T20:11:56.803Z,229.50
2018-05-13T20:14:24.510Z,212.73
2018-05-13T20:16:52.834Z,215.00
2018-05-13T20:19:20.379Z,194.67
2018-05-13T20:21:47.939Z,211.50
2018-05-13T20:24:16.323Z,263.73
2018-05-13T20:26:43.887Z,306.27
2018-05-13T20:29:11.450Z,317.00
2018-05-13T20:31:39.028Z,369.40
2018-05-13T20:34:06.562Z,334.00
2018-05-13T20:36:34.096Z,332.43
2018-05-13T20:39:01.797Z,328.00
2018-05-13T20:41:29.354Z,371.07
2018-05-13T20:43:56.895Z,303.53
2018-05-13T20:46:24.458Z,241.77
2018-05-13T20:48:52.014Z,263.93
2018-05-13T20:51:19.588Z,267.83
2018-05-13T20:53:47.225Z,243.70
2018-05-13T20:56:14.753Z,240.63
2018-05-13T20:58:43.081Z,207.13
2018-05-13T21:01:10.728Z,220.40
2018-05-13T21:03:38.264Z,261.47
2018-05-13T21:06:05.818Z,294.90
2018-05-13T21:08:33.374Z,290.83
2018-05-13T21:11:00.971Z,342.07
2018-05-13T21:13:28.526Z,366.93
2018-05-13T21:15:56.136Z,361.37
2018-05-13T21:18:23.741Z,349.43
2018-05-13T21:20:51.281Z,325.70
2018-05-13T21:23:18.851Z,405.30
2018-05-13T21:25:46.381Z,374.50
2018-05-13T21:28:14.740Z,400.97
2018-05-13T21:30:43.062Z,433.80
2018-05-13T21:33:10.639Z,457.33
2018-05-13T21:35:38.195Z,437.33
2018-05-13T21:38:05.755Z,447.93
2018-05-13T21:40:33.304Z,435.90
2018-05-13T21:43:00.839Z,451.83
2018-05-13T21:45:28.400Z,447.13
2018-05-13T21:47:55.946Z,454.77
2018-05-13T21:50:24.264Z,490.53
2018-05-13T21:52:51.827Z,482.93
2018-05-13T21:55:19.369Z,506.50
2018-05-13T21:57:47.020Z,481.17
2018-05-13T22:00:14.513Z,456.90
2018-05-13T22:02:42.043Z,462.50
2018-05-13T22:05:09.579Z,480.00
2018-05-13T22:07:37.171Z,471.60
2018-05-13T22:10:04.736Z,492.37
2018-05-13T22:12:32.265Z,564.77
2018-05-13T22:14:59.836Z,479.47
2018-05-13T22:17:27.387Z,501.70
2018-05-13T22:19:55.053Z,469.93
2018-05-13T22:22:22.618Z,489.33
2018-05-13T22:24:50.140Z,456.33
2018-05-13T22:27:18.789Z,462.23
2018-05-13T22:29:46.360Z,499.27
2018-05-13T22:32:14.660Z,462.83
2018-05-13T22:34:42.949Z,484.80
2018-05-13T22:37:10.516Z,489.30
2018-05-13T22:39:38.062Z,509.57
2018-05-13T22:42:05.604Z,473.17
2018-05-13T22:44:34.033Z,498.03
2018-05-13T22:47:01.584Z,525.27
2018-05-13T22:49:29.119Z,494.37
2018-05-13T22:51:56.689Z,487.50
2018-05-13T22:54:24.256Z,498.00
2018-05-13T22:56:52.203Z,487.90
2018-05-13T22:59:20.080Z,418.87
2018-05-13T23:01:47.610Z,431.50
2018-05-13T23:04:15.905Z,460.33
2018-05-13T23:06:43.475Z,452.70
2018-05-13T23:09:11.087Z,452.17
2018-05-13T23:11:38.549Z,448.17
2018-05-13T23:14:06.114Z,418.73
2018-05-13T23:16:34.414Z,470.53
2018-05-13T23:19:02.099Z,440.63
2018-05-13T23:21:29.666Z,415.57
2018-05-13T23:23:57.189Z,371.33
2018-05-13T23:26:24.732Z,306.90
2018-05-13T23:28:53.157Z,309.80
2018-05-13T23:31:20.710Z,297.27
2018-05-13T23:33:48.229Z,229.77
2018-05-13T23:36:16.564Z,225.97
2018-05-13T23:38:44.149Z,254.37
2018-05-13T23:41:11.878Z,246.27
2018-05-13T23:43:39.424Z,268.37
2018-05-13T23:46:06.956Z,292.23
2018-05-13T23:48:34.491Z,325.73
2018-05-13T23:51:02.110Z,277.93
2018-05-13T23:53:29.655Z,252.37
2018-05-13T23:55:57.223Z,256.70
2018-05-13T23:58:24.883Z,266.50
